sensor_id;sensor_type;location;lat;lon;timestamp;temperature;humidity
17740;DHT22;8990;33.226;-97.150;2023-04-06T06:21:08;10.80;99.90
17740;DHT22;8990;33.226;-97.150;2023-04-06T06:28:41;10.60;99.90
17740;DHT22;8990;33.226;-97.150;2023-04-06T06:31:12;10.70;99.90
17740;DHT22;8990;33.226;-97.150;2023-04-06T06:33:43;10.70;99.90
17740;DHT22;8990;33.226;-97.150;2023-04-06T06:36:12;10.70;99.90
17740;DHT22;8990;33.226;-97.150;2023-04-06T06:38:42;10.60;99.90
17740;DHT22;8990;33.226;-97.150;2023-04-06T06:41:13;10.60;99.90
17740;DHT22;8990;33.226;-97.150;2023-04-06T06:43:43;10.60;99.90
17740;DHT22;8990;33.226;-97.150;2023-04-06T06:46:12;10.60;99.90
17740;DHT22;8990;33.226;-97.150;2023-04-06T06:48:41;10.50;99.90
17740;DHT22;8990;33.226;-97.150;2023-04-06T06:51:10;10.50;99.90
17740;DHT22;8990;33.226;-97.150;2023-04-06T06:53:42;10.50;99.90
17740;DHT22;8990;33.226;-97.150;2023-04-06T06:56:13;10.50;99.90
17740;DHT22;8990;33.226;-97.150;2023-04-06T06:58:42;10.50;99.90
17740;DHT22;8990;33.226;-97.150;2023-04-06T07:01:11;10.40;99.90
17740;DHT22;8990;33.226;-97.150;2023-04-06T07:03:41;10.40;99.90
17740;DHT22;8990;33.226;-97.150;2023-04-06T07:06:10;10.40;99.90
17740;DHT22;8990;33.226;-97.150;2023-04-06T07:08:40;10.30;99.90
17740;DHT22;8990;33.226;-97.150;2023-04-06T07:11:09;10.30;99.90
17740;DHT22;8990;33.226;-97.150;2023-04-06T07:13:40;10.20;99.90
17740;DHT22;8990;33.226;-97.150;2023-04-06T07:16:09;10.20;99.90
17740;DHT22;8990;33.226;-97.150;2023-04-06T07:18:38;10.20;99.90
17740;DHT22;8990;33.226;-97.150;2023-04-06T07:21:07;10.10;99.90
17740;DHT22;8990;33.226;-97.150;2023-04-06T07:23:36;10.00;99.90
17740;DHT22;8990;33.226;-97.150;2023-04-06T07:26:06;10.00;99.90
17740;DHT22;8990;33.226;-97.150;2023-04-06T07:28:36;10.00;99.90
17740;DHT22;8990;33.226;-97.150;2023-04-06T07:31:07;9.90;99.90
17740;DHT22;8990;33.226;-97.150;2023-04-06T07:33:36;10.00;99.90
17740;DHT22;8990;33.226;-97.150;2023-04-06T07:36:05;10.00;99.90
17740;DHT22;8990;33.226;-97.150;2023-04-06T07:38:34;9.90;99.90
17740;DHT22;8990;33.226;-97.150;2023-04-06T07:41:04;9.90;99.90
17740;DHT22;8990;33.226;-97.150;2023-04-06T07:43:34;9.90;99.90
17740;DHT22;8990;33.226;-97.150;2023-04-06T07:46:06;9.90;99.90
17740;DHT22;8990;33.226;-97.150;2023-04-06T07:48:35;9.80;99.90
17740;DHT22;8990;33.226;-97.150;2023-04-06T07:51:05;9.80;99.90
17740;DHT22;8990;33.226;-97.150;2023-04-06T07:53:38;9.80;99.90
17740;DHT22;8990;33.226;-97.150;2023-04-06T07:56:07;9.80;99.90
17740;DHT22;8990;33.226;-97.150;2023-04-06T07:58:36;9.70;99.90
17740;DHT22;8990;33.226;-97.150;2023-04-06T08:01:07;9.80;99.90
17740;DHT22;8990;33.226;-97.150;2023-04-06T08:03:36;9.70;99.90
17740;DHT22;8990;33.226;-97.150;2023-04-06T08:06:05;9.70;99.90
17740;DHT22;8990;33.226;-97.150;2023-04-06T08:08:34;9.70;99.90
17740;DHT22;8990;33.226;-97.150;2023-04-06T08:11:03;9.70;99.90
17740;DHT22;8990;33.226;-97.150;2023-04-06T08:13:33;9.70;99.90
17740;DHT22;8990;33.226;-97.150;2023-04-06T08:16:02;9.60;99.90
17740;DHT22;8990;33.226;-97.150;2023-04-06T08:18:32;9.60;99.90
17740;DHT22;8990;33.226;-97.150;2023-04-06T08:21:01;9.60;99.90
17740;DHT22;8990;33.226;-97.150;2023-04-06T08:23:30;9.60;99.90
17740;DHT22;8990;33.226;-97.150;2023-04-06T08:25:59;9.60;99.90
17740;DHT22;8990;33.226;-97.150;2023-04-06T08:28:28;9.60;99.90
17740;DHT22;8990;33.226;-97.150;2023-04-06T08:30:57;9.70;99.90
17740;DHT22;8990;33.226;-97.150;2023-04-06T08:33:26;9.60;99.90
17740;DHT22;8990;33.226;-97.150;2023-04-06T08:35:58;9.60;99.90
17740;DHT22;8990;33.226;-97.150;2023-04-06T08:38:27;9.50;99.90
17740;DHT22;8990;33.226;-97.150;2023-04-06T08:40:56;9.40;99.90
17740;DHT22;8990;33.226;-97.150;2023-04-06T08:43:27;9.50;99.90
17740;DHT22;8990;33.226;-97.150;2023-04-06T08:45:57;9.50;99.90
17740;DHT22;8990;33.226;-97.150;2023-04-06T08:48:27;9.40;99.90
17740;DHT22;8990;33.226;-97.150;2023-04-06T08:50:58;9.40;99.90
17740;DHT22;8990;33.226;-97.150;2023-04-06T08:53:27;9.40;99.90
17740;DHT22;8990;33.226;-97.150;2023-04-06T08:55:57;9.40;99.90
17740;DHT22;8990;33.226;-97.150;2023-04-06T08:58:31;9.40;99.90
17740;DHT22;8990;33.226;-97.150;2023-04-06T09:01:02;9.30;99.90
17740;DHT22;8990;33.226;-97.150;2023-04-06T09:03:37;9.40;99.90
17740;DHT22;8990;33.226;-97.150;2023-04-06T09:06:08;9.40;99.90
17740;DHT22;8990;33.226;-97.150;2023-04-06T09:08:39;9.40;99.90
17740;DHT22;8990;33.226;-97.150;2023-04-06T09:11:09;9.40;99.90
17740;DHT22;8990;33.226;-97.150;2023-04-06T09:13:48;9.40;99.90
17740;DHT22;8990;33.226;-97.150;2023-04-06T09:16:18;9.40;99.90
17740;DHT22;8990;33.226;-97.150;2023-04-06T09:18:47;9.40;99.90
17740;DHT22;8990;33.226;-97.150;2023-04-06T09:21:19;9.40;99.90
17740;DHT22;8990;33.226;-97.150;2023-04-06T09:23:57;9.40;99.90
17740;DHT22;8990;33.226;-97.150;2023-04-06T09:26:26;9.50;99.90
17740;DHT22;8990;33.226;-97.150;2023-04-06T09:28:56;9.40;99.90
17740;DHT22;8990;33.226;-97.150;2023-04-06T09:31:28;9.40;99.90
17740;DHT22;8990;33.226;-97.150;2023-04-06T09:33:57;9.50;99.90
17740;DHT22;8990;33.226;-97.150;2023-04-06T09:36:35;9.50;99.90
17740;DHT22;8990;33.226;-97.150;2023-04-06T09:39:05;9.40;99.90
17740;DHT22;8990;33.226;-97.150;2023-04-06T09:41:35;9.50;99.90
17740;DHT22;8990;33.226;-97.150;2023-04-06T09:44:04;9.50;99.90
17740;DHT22;8990;33.226;-97.150;2023-04-06T09:46:35;9.50;99.90
17740;DHT22;8990;33.226;-97.150;2023-04-06T09:49:05;9.60;99.90
17740;DHT22;8990;33.226;-97.150;2023-04-06T09:51:37;9.60;99.90
17740;DHT22;8990;33.226;-97.150;2023-04-06T09:54:07;9.60;99.90
17740;DHT22;8990;33.226;-97.150;2023-04-06T09:56:39;9.50;99.90
17740;DHT22;8990;33.226;-97.150;2023-04-06T09:59:14;9.50;99.90
17740;DHT22;8990;33.226;-97.150;2023-04-06T10:01:48;9.60;99.90
17740;DHT22;8990;33.226;-97.150;2023-04-06T10:04:26;9.50;99.90
17740;DHT22;8990;33.226;-97.150;2023-04-06T10:07:02;9.50;99.90
17740;DHT22;8990;33.226;-97.150;2023-04-06T10:09:33;9.50;99.90
17740;DHT22;8990;33.226;-97.150;2023-04-06T10:12:04;9.60;99.90
17740;DHT22;8990;33.226;-97.150;2023-04-06T10:14:34;9.40;99.90
17740;DHT22;8990;33.226;-97.150;2023-04-06T10:17:05;9.40;99.90
17740;DHT22;8990;33.226;-97.150;2023-04-06T10:19:39;9.50;99.90
17740;DHT22;8990;33.226;-97.150;2023-04-06T10:22:14;9.50;99.90
17740;DHT22;8990;33.226;-97.150;2023-04-06T10:24:47;9.40;99.90
17740;DHT22;8990;33.226;-97.150;2023-04-06T10:27:16;9.40;99.90
17740;DHT22;8990;33.226;-97.150;2023-04-06T10:30:02;9.50;99.90
17740;DHT22;8990;33.226;-97.150;2023-04-06T10:32:35;9.40;99.90
17740;DHT22;8990;33.226;-97.150;2023-04-06T10:35:09;9.40;99.90
17740;DHT22;8990;33.226;-97.150;2023-04-06T10:37:53;9.40;99.90
17740;DHT22;8990;33.226;-97.150;2023-04-06T10:40:25;9.40;99.90
17740;DHT22;8990;33.226;-97.150;2023-04-06T10:42:55;9.30;99.90
17740;DHT22;8990;33.226;-97.150;2023-04-06T10:45:25;9.30;99.90
17740;DHT22;8990;33.226;-97.150;2023-04-06T10:47:54;9.30;99.90
17740;DHT22;8990;33.226;-97.150;2023-04-06T10:50:24;9.30;99.90
17740;DHT22;8990;33.226;-97.150;2023-04-06T10:53:02;9.20;99.90
17740;DHT22;8990;33.226;-97.150;2023-04-06T10:55:31;9.20;99.90
17740;DHT22;8990;33.226;-97.150;2023-04-06T10:58:00;9.10;99.90
17740;DHT22;8990;33.226;-97.150;2023-04-06T11:00:30;9.10;99.90
17740;DHT22;8990;33.226;-97.150;2023-04-06T11:03:00;9.10;99.90
17740;DHT22;8990;33.226;-97.150;2023-04-06T11:05:29;9.10;99.90
17740;DHT22;8990;33.226;-97.150;2023-04-06T11:08:00;9.00;99.90
17740;DHT22;8990;33.226;-97.150;2023-04-06T11:10:29;9.00;99.90
17740;DHT22;8990;33.226;-97.150;2023-04-06T11:12:58;9.00;99.90
17740;DHT22;8990;33.226;-97.150;2023-04-06T11:15:33;8.90;99.90
17740;DHT22;8990;33.226;-97.150;2023-04-06T11:18:04;9.00;99.90
17740;DHT22;8990;33.226;-97.150;2023-04-06T11:20:33;8.90;99.90
17740;DHT22;8990;33.226;-97.150;2023-04-06T11:23:04;8.80;99.90
17740;DHT22;8990;33.226;-97.150;2023-04-06T11:25:33;8.80;99.90
17740;DHT22;8990;33.226;-97.150;2023-04-06T11:28:02;8.70;99.90
17740;DHT22;8990;33.226;-97.150;2023-04-06T11:30:31;8.70;99.90
17740;DHT22;8990;33.226;-97.150;2023-04-06T11:33:01;8.60;99.90
17740;DHT22;8990;33.226;-97.150;2023-04-06T11:35:31;8.60;99.90
17740;DHT22;8990;33.226;-97.150;2023-04-06T11:38:05;8.60;99.90
17740;DHT22;8990;33.226;-97.150;2023-04-06T11:40:34;8.60;99.90
17740;DHT22;8990;33.226;-97.150;2023-04-06T11:43:04;9.10;99.90
17740;DHT22;8990;33.226;-97.150;2023-04-06T11:45:41;8.50;99.90
17740;DHT22;8990;33.226;-97.150;2023-04-06T11:48:19;8.60;99.90
17740;DHT22;8990;33.226;-97.150;2023-04-06T11:50:55;8.50;99.90
17740;DHT22;8990;33.226;-97.150;2023-04-06T11:53:27;8.50;99.90
17740;DHT22;8990;33.226;-97.150;2023-04-06T11:55:57;8.50;99.90
17740;DHT22;8990;33.226;-97.150;2023-04-06T11:58:26;8.50;99.90
17740;DHT22;8990;33.226;-97.150;2023-04-06T12:01:04;8.60;99.90
17740;DHT22;8990;33.226;-97.150;2023-04-06T12:03:33;8.60;99.90
17740;DHT22;8990;33.226;-97.150;2023-04-06T12:06:02;8.60;99.90
17740;DHT22;8990;33.226;-97.150;2023-04-06T12:08:33;8.60;99.90
17740;DHT22;8990;33.226;-97.150;2023-04-06T12:11:01;8.40;99.90
17740;DHT22;8990;33.226;-97.150;2023-04-06T12:13:30;8.70;99.90
17740;DHT22;8990;33.226;-97.150;2023-04-06T12:15:59;9.10;99.90
17740;DHT22;8990;33.226;-97.150;2023-04-06T12:18:29;8.80;99.90
17740;DHT22;8990;33.226;-97.150;2023-04-06T12:21:01;8.80;99.90
17740;DHT22;8990;33.226;-97.150;2023-04-06T12:23:32;8.80;99.90
17740;DHT22;8990;33.226;-97.150;2023-04-06T12:26:01;8.80;99.90
17740;DHT22;8990;33.226;-97.150;2023-04-06T12:28:29;8.90;99.90
17740;DHT22;8990;33.226;-97.150;2023-04-06T12:31:01;8.90;99.90
17740;DHT22;8990;33.226;-97.150;2023-04-06T12:33:30;9.00;99.90
17740;DHT22;8990;33.226;-97.150;2023-04-06T12:35:59;9.00;99.90
17740;DHT22;8990;33.226;-97.150;2023-04-06T12:38:28;9.10;99.90
17740;DHT22;8990;33.226;-97.150;2023-04-06T12:40:58;9.20;99.90
17740;DHT22;8990;33.226;-97.150;2023-04-06T12:43:28;9.30;99.90
17740;DHT22;8990;33.226;-97.150;2023-04-06T12:45:57;9.30;99.90
17740;DHT22;8990;33.226;-97.150;2023-04-06T12:48:27;9.40;99.90
17740;DHT22;8990;33.226;-97.150;2023-04-06T12:50:57;9.40;99.90
17740;DHT22;8990;33.226;-97.150;2023-04-06T12:53:27;9.50;99.90
17740;DHT22;8990;33.226;-97.150;2023-04-06T12:55:58;9.70;99.90
17740;DHT22;8990;33.226;-97.150;2023-04-06T12:58:27;9.70;99.90
17740;DHT22;8990;33.226;-97.150;2023-04-06T13:00:58;9.80;99.90
17740;DHT22;8990;33.226;-97.150;2023-04-06T13:03:29;9.90;99.90
17740;DHT22;8990;33.226;-97.150;2023-04-06T13:06:00;10.10;99.90
17740;DHT22;8990;33.226;-97.150;2023-04-06T13:08:29;10.20;99.90
17740;DHT22;8990;33.226;-97.150;2023-04-06T13:11:00;10.30;99.90
17740;DHT22;8990;33.226;-97.150;2023-04-06T13:13:30;10.30;99.90
17740;DHT22;8990;33.226;-97.150;2023-04-06T13:16:00;10.40;99.90
17740;DHT22;8990;33.226;-97.150;2023-04-06T13:18:30;10.40;99.90
17740;DHT22;8990;33.226;-97.150;2023-04-06T13:20:59;10.50;99.90
17740;DHT22;8990;33.226;-97.150;2023-04-06T13:23:28;10.50;99.90
17740;DHT22;8990;33.226;-97.150;2023-04-06T13:26:02;10.60;99.90
17740;DHT22;8990;33.226;-97.150;2023-04-06T13:28:32;10.60;99.90
17740;DHT22;8990;33.226;-97.150;2023-04-06T13:33:31;10.60;99.90
17740;DHT22;8990;33.226;-97.150;2023-04-06T13:36:01;10.70;99.90
17740;DHT22;8990;33.226;-97.150;2023-04-06T13:38:30;10.70;99.90
17740;DHT22;8990;33.226;-97.150;2023-04-06T13:41:03;10.70;99.90
17740;DHT22;8990;33.226;-97.150;2023-04-06T13:43:32;10.70;99.90
17740;DHT22;8990;33.226;-97.150;2023-04-06T13:46:01;10.80;99.90
17740;DHT22;8990;33.226;-97.150;2023-04-06T13:48:30;10.90;99.90
17740;DHT22;8990;33.226;-97.150;2023-04-06T13:51:08;10.90;99.90
17740;DHT22;8990;33.226;-97.150;2023-04-06T13:53:37;10.90;99.90
17740;DHT22;8990;33.226;-97.150;2023-04-06T13:56:08;11.00;99.90
17740;DHT22;8990;33.226;-97.150;2023-04-06T13:58:37;11.00;99.90
17740;DHT22;8990;33.226;-97.150;2023-04-06T14:01:07;11.00;99.90
17740;DHT22;8990;33.226;-97.150;2023-04-06T14:03:36;11.10;99.90
17740;DHT22;8990;33.226;-97.150;2023-04-06T14:06:11;11.10;99.90
17740;DHT22;8990;33.226;-97.150;2023-04-06T14:08:40;11.10;99.90
17740;DHT22;8990;33.226;-97.150;2023-04-06T14:11:13;11.10;99.90
17740;DHT22;8990;33.226;-97.150;2023-04-06T14:13:43;11.20;99.90
17740;DHT22;8990;33.226;-97.150;2023-04-06T14:16:12;11.10;99.90
17740;DHT22;8990;33.226;-97.150;2023-04-06T14:18:41;11.20;99.90
17740;DHT22;8990;33.226;-97.150;2023-04-06T14:21:09;11.30;99.90
17740;DHT22;8990;33.226;-97.150;2023-04-06T14:23:39;11.30;99.90
17740;DHT22;8990;33.226;-97.150;2023-04-06T14:26:09;11.40;99.90
17740;DHT22;8990;33.226;-97.150;2023-04-06T14:28:40;11.40;99.90
17740;DHT22;8990;33.226;-97.150;2023-04-06T14:31:12;11.50;99.90
17740;DHT22;8990;33.226;-97.150;2023-04-06T14:33:42;11.50;99.90
17740;DHT22;8990;33.226;-97.150;2023-04-06T14:36:11;11.40;99.90
17740;DHT22;8990;33.226;-97.150;2023-04-06T14:38:40;11.50;99.90
17740;DHT22;8990;33.226;-97.150;2023-04-06T14:41:15;11.50;99.90
17740;DHT22;8990;33.226;-97.150;2023-04-06T14:43:48;11.50;99.90
17740;DHT22;8990;33.226;-97.150;2023-04-06T14:46:19;11.60;99.90
17740;DHT22;8990;33.226;-97.150;2023-04-06T14:48:48;11.70;99.90
17740;DHT22;8990;33.226;-97.150;2023-04-06T14:51:17;11.50;99.90
17740;DHT22;8990;33.226;-97.150;2023-04-06T14:53:46;11.80;99.90
17740;DHT22;8990;33.226;-97.150;2023-04-06T14:56:19;11.80;99.90
17740;DHT22;8990;33.226;-97.150;2023-04-06T14:58:51;11.80;99.90
17740;DHT22;8990;33.226;-97.150;2023-04-06T15:01:20;11.80;99.90
17740;DHT22;8990;33.226;-97.150;2023-04-06T15:03:49;11.90;99.90
17740;DHT22;8990;33.226;-97.150;2023-04-06T15:06:19;11.90;99.90
17740;DHT22;8990;33.226;-97.150;2023-04-06T15:08:48;12.00;99.90
17740;DHT22;8990;33.226;-97.150;2023-04-06T15:11:17;12.00;99.90
17740;DHT22;8990;33.226;-97.150;2023-04-06T15:13:48;12.00;99.90
17740;DHT22;8990;33.226;-97.150;2023-04-06T15:16:19;12.10;99.90
17740;DHT22;8990;33.226;-97.150;2023-04-06T15:18:48;12.20;99.90
17740;DHT22;8990;33.226;-97.150;2023-04-06T15:21:16;12.30;99.90
17740;DHT22;8990;33.226;-97.150;2023-04-06T15:23:46;12.30;99.90
17740;DHT22;8990;33.226;-97.150;2023-04-06T15:26:16;12.50;99.90
17740;DHT22;8990;33.226;-97.150;2023-04-06T15:28:45;12.50;99.90
17740;DHT22;8990;33.226;-97.150;2023-04-06T15:31:14;12.70;99.90
17740;DHT22;8990;33.226;-97.150;2023-04-06T15:33:44;12.60;99.90
17740;DHT22;8990;33.226;-97.150;2023-04-06T15:36:23;12.70;99.90
17740;DHT22;8990;33.226;-97.150;2023-04-06T15:38:53;12.80;99.90
17740;DHT22;8990;33.226;-97.150;2023-04-06T15:41:22;12.90;99.90
17740;DHT22;8990;33.226;-97.150;2023-04-06T15:43:52;12.90;99.90
17740;DHT22;8990;33.226;-97.150;2023-04-06T15:46:21;12.90;99.90
17740;DHT22;8990;33.226;-97.150;2023-04-06T15:48:52;13.00;99.90
17740;DHT22;8990;33.226;-97.150;2023-04-06T15:51:21;13.10;99.90
17740;DHT22;8990;33.226;-97.150;2023-04-06T15:53:50;13.20;99.90
17740;DHT22;8990;33.226;-97.150;2023-04-06T15:56:18;13.20;99.90
17740;DHT22;8990;33.226;-97.150;2023-04-06T15:58:47;13.30;99.90
17740;DHT22;8990;33.226;-97.150;2023-04-06T16:01:18;13.30;99.90
17740;DHT22;8990;33.226;-97.150;2023-04-06T16:03:47;13.20;99.90
17740;DHT22;8990;33.226;-97.150;2023-04-06T16:06:17;13.20;99.90
17740;DHT22;8990;33.226;-97.150;2023-04-06T16:08:46;13.30;99.90
17740;DHT22;8990;33.226;-97.150;2023-04-06T16:11:15;13.20;99.90
17740;DHT22;8990;33.226;-97.150;2023-04-06T16:13:44;13.30;99.90
17740;DHT22;8990;33.226;-97.150;2023-04-06T16:16:13;13.30;99.90
17740;DHT22;8990;33.226;-97.150;2023-04-06T16:18:42;13.50;99.90
17740;DHT22;8990;33.226;-97.150;2023-04-06T16:21:16;13.60;99.90
17740;DHT22;8990;33.226;-97.150;2023-04-06T16:23:46;13.50;99.90
17740;DHT22;8990;33.226;-97.150;2023-04-06T16:26:16;13.50;99.90
17740;DHT22;8990;33.226;-97.150;2023-04-06T16:28:45;13.50;99.90
17740;DHT22;8990;33.226;-97.150;2023-04-06T16:31:19;13.60;99.90
17740;DHT22;8990;33.226;-97.150;2023-04-06T16:33:48;13.70;99.90
17740;DHT22;8990;33.226;-97.150;2023-04-06T16:36:23;13.70;99.90
17740;DHT22;8990;33.226;-97.150;2023-04-06T16:38:53;13.70;99.90
17740;DHT22;8990;33.226;-97.150;2023-04-06T16:41:22;13.80;99.90
17740;DHT22;8990;33.226;-97.150;2023-04-06T16:43:51;13.80;99.90
17740;DHT22;8990;33.226;-97.150;2023-04-06T16:46:20;14.00;99.90
17740;DHT22;8990;33.226;-97.150;2023-04-06T16:48:49;14.10;99.90
17740;DHT22;8990;33.226;-97.150;2023-04-06T16:51:18;14.20;99.90
17740;DHT22;8990;33.226;-97.150;2023-04-06T16:53:49;14.30;99.90
17740;DHT22;8990;33.226;-97.150;2023-04-06T16:56:18;14.30;99.90
17740;DHT22;8990;33.226;-97.150;2023-04-06T16:58:47;14.40;99.90
17740;DHT22;8990;33.226;-97.150;2023-04-06T17:01:20;14.50;99.90
17740;DHT22;8990;33.226;-97.150;2023-04-06T17:03:49;14.60;99.90
17740;DHT22;8990;33.226;-97.150;2023-04-06T17:06:18;14.60;99.90
17740;DHT22;8990;33.226;-97.150;2023-04-06T17:08:49;14.60;99.90
17740;DHT22;8990;33.226;-97.150;2023-04-06T17:11:20;14.60;99.90
17740;DHT22;8990;33.226;-97.150;2023-04-06T17:13:49;14.70;99.90
17740;DHT22;8990;33.226;-97.150;2023-04-06T17:16:17;14.70;99.90
17740;DHT22;8990;33.226;-97.150;2023-04-06T17:18:46;14.70;99.90
17740;DHT22;8990;33.226;-97.150;2023-04-06T17:21:15;14.60;99.90
17740;DHT22;8990;33.226;-97.150;2023-04-06T17:23:47;14.60;99.90
17740;DHT22;8990;33.226;-97.150;2023-04-06T17:26:17;14.70;99.90
17740;DHT22;8990;33.226;-97.150;2023-04-06T17:28:47;14.70;99.90
17740;DHT22;8990;33.226;-97.150;2023-04-06T17:31:16;14.70;99.90
17740;DHT22;8990;33.226;-97.150;2023-04-06T17:33:45;14.70;99.90
17740;DHT22;8990;33.226;-97.150;2023-04-06T17:36:14;14.80;99.90
17740;DHT22;8990;33.226;-97.150;2023-04-06T17:38:43;14.80;99.90
17740;DHT22;8990;33.226;-97.150;2023-04-06T17:41:13;14.90;99.90
17740;DHT22;8990;33.226;-97.150;2023-04-06T17:43:44;14.80;99.90
17740;DHT22;8990;33.226;-97.150;2023-04-06T17:46:14;14.90;99.90
17740;DHT22;8990;33.226;-97.150;2023-04-06T17:48:43;14.90;99.90
17740;DHT22;8990;33.226;-97.150;2023-04-06T17:51:13;14.90;99.90
17740;DHT22;8990;33.226;-97.150;2023-04-06T17:53:46;14.90;99.90
17740;DHT22;8990;33.226;-97.150;2023-04-06T17:56:15;14.90;99.90
17740;DHT22;8990;33.226;-97.150;2023-04-06T17:58:45;14.90;99.90
17740;DHT22;8990;33.226;-97.150;2023-04-06T18:01:14;14.90;99.90
17740;DHT22;8990;33.226;-97.150;2023-04-06T18:03:45;14.90;99.90
17740;DHT22;8990;33.226;-97.150;2023-04-06T18:06:15;15.00;99.90
17740;DHT22;8990;33.226;-97.150;2023-04-06T18:08:44;15.10;99.90
17740;DHT22;8990;33.226;-97.150;2023-04-06T18:11:17;15.20;99.90
17740;DHT22;8990;33.226;-97.150;2023-04-06T18:13:48;15.20;99.90
17740;DHT22;8990;33.226;-97.150;2023-04-06T18:16:17;15.20;99.90
17740;DHT22;8990;33.226;-97.150;2023-04-06T18:18:47;15.20;99.90
17740;DHT22;8990;33.226;-97.150;2023-04-06T18:21:15;15.00;99.90
17740;DHT22;8990;33.226;-97.150;2023-04-06T18:23:45;15.00;99.90
17740;DHT22;8990;33.226;-97.150;2023-04-06T18:26:16;15.10;99.90
17740;DHT22;8990;33.226;-97.150;2023-04-06T18:28:45;15.20;99.90
17740;DHT22;8990;33.226;-97.150;2023-04-06T18:31:16;15.20;99.90
17740;DHT22;8990;33.226;-97.150;2023-04-06T18:33:47;15.10;99.90
17740;DHT22;8990;33.226;-97.150;2023-04-06T18:36:16;15.20;99.90
17740;DHT22;8990;33.226;-97.150;2023-04-06T18:38:46;15.10;99.90
17740;DHT22;8990;33.226;-97.150;2023-04-06T18:41:15;15.20;99.90
17740;DHT22;8990;33.226;-97.150;2023-04-06T18:43:46;15.10;99.90
17740;DHT22;8990;33.226;-97.150;2023-04-06T18:46:17;15.20;99.90
17740;DHT22;8990;33.226;-97.150;2023-04-06T18:48:47;15.30;99.90
17740;DHT22;8990;33.226;-97.150;2023-04-06T18:51:16;15.30;99.90
17740;DHT22;8990;33.226;-97.150;2023-04-06T18:53:46;15.30;99.90
17740;DHT22;8990;33.226;-97.150;2023-04-06T18:56:16;15.40;99.90
17740;DHT22;8990;33.226;-97.150;2023-04-06T18:58:45;15.40;99.90
17740;DHT22;8990;33.226;-97.150;2023-04-06T19:01:26;15.40;99.90
17740;DHT22;8990;33.226;-97.150;2023-04-06T19:03:56;15.40;99.90
17740;DHT22;8990;33.226;-97.150;2023-04-06T19:06:26;15.40;99.90
17740;DHT22;8990;33.226;-97.150;2023-04-06T19:08:54;15.40;99.90
17740;DHT22;8990;33.226;-97.150;2023-04-06T19:11:24;15.40;99.90
17740;DHT22;8990;33.226;-97.150;2023-04-06T19:13:53;15.40;99.90
17740;DHT22;8990;33.226;-97.150;2023-04-06T19:16:24;15.40;99.90
17740;DHT22;8990;33.226;-97.150;2023-04-06T19:18:53;15.30;99.90
17740;DHT22;8990;33.226;-97.150;2023-04-06T19:21:24;15.20;99.90
17740;DHT22;8990;33.226;-97.150;2023-04-06T19:23:53;15.10;99.90
17740;DHT22;8990;33.226;-97.150;2023-04-06T19:26:23;15.20;99.90
17740;DHT22;8990;33.226;-97.150;2023-04-06T19:28:53;15.20;99.90
17740;DHT22;8990;33.226;-97.150;2023-04-06T19:31:24;15.30;99.90
17740;DHT22;8990;33.226;-97.150;2023-04-06T19:33:54;15.30;99.90
17740;DHT22;8990;33.226;-97.150;2023-04-06T19:36:23;15.40;99.90
17740;DHT22;8990;33.226;-97.150;2023-04-06T19:38:52;15.40;99.90
17740;DHT22;8990;33.226;-97.150;2023-04-06T19:41:22;15.40;99.90
17740;DHT22;8990;33.226;-97.150;2023-04-06T19:43:51;15.40;99.90
17740;DHT22;8990;33.226;-97.150;2023-04-06T19:46:20;15.40;99.90
17740;DHT22;8990;33.226;-97.150;2023-04-06T19:48:50;15.50;99.90
17740;DHT22;8990;33.226;-97.150;2023-04-06T19:51:19;15.50;99.90
17740;DHT22;8990;33.226;-97.150;2023-04-06T19:53:48;15.40;99.90
17740;DHT22;8990;33.226;-97.150;2023-04-06T19:56:17;15.50;99.90
17740;DHT22;8990;33.226;-97.150;2023-04-06T19:58:46;15.50;99.90
17740;DHT22;8990;33.226;-97.150;2023-04-06T20:01:15;15.50;99.90
17740;DHT22;8990;33.226;-97.150;2023-04-06T20:03:43;15.60;99.90
17740;DHT22;8990;33.226;-97.150;2023-04-06T20:06:14;15.50;99.90
17740;DHT22;8990;33.226;-97.150;2023-04-06T20:08:44;15.70;99.90
17740;DHT22;8990;33.226;-97.150;2023-04-06T20:11:12;15.70;99.90
17740;DHT22;8990;33.226;-97.150;2023-04-06T20:13:41;15.70;99.90
17740;DHT22;8990;33.226;-97.150;2023-04-06T20:16:10;15.80;99.90
17740;DHT22;8990;33.226;-97.150;2023-04-06T20:18:39;15.80;99.90
17740;DHT22;8990;33.226;-97.150;2023-04-06T20:21:07;15.70;99.90
17740;DHT22;8990;33.226;-97.150;2023-04-06T20:23:38;15.70;99.90
17740;DHT22;8990;33.226;-97.150;2023-04-06T20:26:08;15.70;99.90
17740;DHT22;8990;33.226;-97.150;2023-04-06T20:28:37;15.70;99.90
17740;DHT22;8990;33.226;-97.150;2023-04-06T20:31:06;15.70;99.90
17740;DHT22;8990;33.226;-97.150;2023-04-06T20:33:35;15.70;99.90
17740;DHT22;8990;33.226;-97.150;2023-04-06T20:36:04;15.70;99.90
17740;DHT22;8990;33.226;-97.150;2023-04-06T20:38:33;15.70;99.90
17740;DHT22;8990;33.226;-97.150;2023-04-06T20:41:04;15.90;99.90
17740;DHT22;8990;33.226;-97.150;2023-04-06T20:43:36;15.90;99.90
17740;DHT22;8990;33.226;-97.150;2023-04-06T20:46:05;15.90;99.90
17740;DHT22;8990;33.226;-97.150;2023-04-06T20:48:34;16.00;99.90
17740;DHT22;8990;33.226;-97.150;2023-04-06T20:51:04;15.80;99.90
17740;DHT22;8990;33.226;-97.150;2023-04-06T20:53:33;15.70;99.90
17740;DHT22;8990;33.226;-97.150;2023-04-06T20:56:03;15.80;99.90
17740;DHT22;8990;33.226;-97.150;2023-04-06T20:58:32;15.70;99.90
17740;DHT22;8990;33.226;-97.150;2023-04-06T21:01:01;15.70;99.90
17740;DHT22;8990;33.226;-97.150;2023-04-06T21:03:30;15.70;99.90
17740;DHT22;8990;33.226;-97.150;2023-04-06T21:06:02;15.70;99.90
17740;DHT22;8990;33.226;-97.150;2023-04-06T21:08:31;15.60;99.90
17740;DHT22;8990;33.226;-97.150;2023-04-06T21:11:01;15.70;99.90
17740;DHT22;8990;33.226;-97.150;2023-04-06T21:13:31;15.70;99.90
17740;DHT22;8990;33.226;-97.150;2023-04-06T21:16:00;15.80;99.90
17740;DHT22;8990;33.226;-97.150;2023-04-06T21:18:29;15.90;99.90
17740;DHT22;8990;33.226;-97.150;2023-04-06T21:20:59;15.90;99.90
17740;DHT22;8990;33.226;-97.150;2023-04-06T21:23:27;15.80;99.90
17740;DHT22;8990;33.226;-97.150;2023-04-06T21:25:56;15.90;99.90
17740;DHT22;8990;33.226;-97.150;2023-04-06T21:28:26;16.00;99.90
17740;DHT22;8990;33.226;-97.150;2023-04-06T21:30:56;16.00;99.90
17740;DHT22;8990;33.226;-97.150;2023-04-06T21:33:26;16.00;99.90
17740;DHT22;8990;33.226;-97.150;2023-04-06T21:35:55;16.00;99.90
17740;DHT22;8990;33.226;-97.150;2023-04-06T21:38:23;16.20;99.90
17740;DHT22;8990;33.226;-97.150;2023-04-06T21:40:56;16.30;99.90
17740;DHT22;8990;33.226;-97.150;2023-04-06T21:43:24;16.40;99.90
17740;DHT22;8990;33.226;-97.150;2023-04-06T21:45:55;16.50;99.90
17740;DHT22;8990;33.226;-97.150;2023-04-06T21:48:24;16.50;99.90
17740;DHT22;8990;33.226;-97.150;2023-04-06T21:50:53;16.40;99.90
17740;DHT22;8990;33.226;-97.150;2023-04-06T21:53:23;16.40;99.90
17740;DHT22;8990;33.226;-97.150;2023-04-06T21:55:51;16.50;99.90
17740;DHT22;8990;33.226;-97.150;2023-04-06T21:58:20;16.60;99.90
17740;DHT22;8990;33.226;-97.150;2023-04-06T22:00:49;16.60;99.90
17740;DHT22;8990;33.226;-97.150;2023-04-06T22:03:19;16.60;99.90
17740;DHT22;8990;33.226;-97.150;2023-04-06T22:05:48;16.30;99.90